createdAt,value
2019-05-29T00:00:57.106Z,93.13
2019-05-29T00:01:57.093Z,93.22
2019-05-29T00:02:57.048Z,92.94
2019-05-29T00:03:57.025Z,93.13
2019-05-29T00:04:57.012Z,93.60
2019-05-29T00:05:57.001Z,93.70
2019-05-29T00:06:57.005Z,94.27
2019-05-29T00:07:56.970Z,94.37
2019-05-29T00:08:56.946Z,94.65
2019-05-29T00:09:56.950Z,94.84
2019-05-29T00:10:56.918Z,95.03
2019-05-29T00:11:56.931Z,95.03
2019-05-29T00:12:56.881Z,95.12
2019-05-29T00:13:56.884Z,95.08
2019-05-29T00:14:56.849Z,95.56
2019-05-29T00:15:56.857Z,95.46
2019-05-29T00:16:56.875Z,95.46
2019-05-29T00:17:56.825Z,95.84
2019-05-29T00:18:58.349Z,96.03
2019-05-29T00:19:56.773Z,96.22
2019-05-29T00:20:56.756Z,96.41
2019-05-29T00:21:56.745Z,96.41
2019-05-29T00:22:56.737Z,96.60
2019-05-29T00:23:56.707Z,96.60
2019-05-29T00:24:56.691Z,96.51
2019-05-29T00:25:56.675Z,96.51
2019-05-29T00:26:56.676Z,96.89
2019-05-29T00:27:56.769Z,96.31
2019-05-29T00:28:56.634Z,96.31
2019-05-29T00:29:56.604Z,96.41
2019-05-29T00:30:56.596Z,96.98
2019-05-29T00:31:56.585Z,96.98
2019-05-29T00:32:56.565Z,97.17
2019-05-29T00:33:56.578Z,96.60
2019-05-29T00:34:56.523Z,96.22
2019-05-29T00:35:56.521Z,96.12
2019-05-29T00:36:56.489Z,96.03
2019-05-29T00:37:56.482Z,96.03
2019-05-29T00:38:56.595Z,96.41
2019-05-29T00:39:56.440Z,96.60
2019-05-29T00:40:56.500Z,96.31
2019-05-29T00:41:56.418Z,95.84
2019-05-29T00:42:56.393Z,95.65
2019-05-29T00:43:56.374Z,95.75
2019-05-29T00:44:56.390Z,95.94
2019-05-29T00:45:56.347Z,96.31
2019-05-29T00:46:56.323Z,96.22
2019-05-29T00:47:56.319Z,96.12
2019-05-29T00:48:56.295Z,96.79
2019-05-29T00:49:56.344Z,96.70
2019-05-29T00:50:56.278Z,97.08
2019-05-29T00:51:56.249Z,97.36
2019-05-29T00:52:56.238Z,97.84
2019-05-29T00:53:56.211Z,97.55
2019-05-29T00:54:56.195Z,97.08
2019-05-29T00:55:56.195Z,96.98
2019-05-29T00:56:56.162Z,97.27
2019-05-29T00:57:56.142Z,97.65
2019-05-29T00:58:56.126Z,97.46
2019-05-29T00:59:56.111Z,97.74
2019-05-29T01:00:56.165Z,98.36
2019-05-29T01:01:56.087Z,98.60
2019-05-29T01:02:56.074Z,98.27
2019-05-29T01:03:56.045Z,98.46
2019-05-29T01:04:56.039Z,98.36
2019-05-29T01:05:56.015Z,98.83
2019-05-29T01:06:56.025Z,99.31
2019-05-29T01:07:55.979Z,99.60
2019-05-29T01:08:55.961Z,99.50
2019-05-29T01:09:55.956Z,99.41
2019-05-29T01:10:55.936Z,99.02
2019-05-29T01:11:55.986Z,99.22
2019-05-29T01:12:56.005Z,99.31
2019-05-29T01:13:55.888Z,99.41
2019-05-29T01:14:55.873Z,99.60
2019-05-29T01:15:55.849Z,99.79
2019-05-29T01:16:55.836Z,99.69
2019-05-29T01:17:55.818Z,99.22
2019-05-29T01:18:55.807Z,99.08
2019-05-29T01:19:55.787Z,98.79
2019-05-29T01:20:55.765Z,98.69
2019-05-29T01:21:55.761Z,98.60
2019-05-29T01:22:55.745Z,98.22
2019-05-29T01:23:55.719Z,98.22
2019-05-29T01:24:55.710Z,98.60
2019-05-29T01:25:55.681Z,98.79
2019-05-29T01:26:55.667Z,99.08
2019-05-29T01:27:55.685Z,98.88
2019-05-29T01:28:55.631Z,98.60
2019-05-29T01:29:55.626Z,98.41
2019-05-29T01:30:55.611Z,98.32
2019-05-29T01:31:55.603Z,98.22
2019-05-29T01:32:55.592Z,97.93
2019-05-29T01:33:55.549Z,97.65
2019-05-29T01:34:55.533Z,97.65
2019-05-29T01:35:55.516Z,97.36
2019-05-29T01:36:55.524Z,97.36
2019-05-29T01:37:55.509Z,97.17
2019-05-29T01:38:55.468Z,97.17
2019-05-29T01:39:55.483Z,97.17
2019-05-29T01:40:55.438Z,97.55
2019-05-29T01:41:55.421Z,97.74
2019-05-29T01:42:55.396Z,97.65
2019-05-29T01:43:55.435Z,97.17
2019-05-29T01:45:07.208Z,96.79
2019-05-29T01:45:55.353Z,96.41
2019-05-29T01:46:55.343Z,96.12
2019-05-29T01:47:55.315Z,96.12
2019-05-29T01:48:55.311Z,96.46
2019-05-29T01:49:55.317Z,96.17
2019-05-29T01:50:55.263Z,95.51
2019-05-29T01:51:55.254Z,95.12
2019-05-29T01:52:55.233Z,94.93
2019-05-29T01:53:55.216Z,95.12
2019-05-29T01:54:55.237Z,95.03
2019-05-29T01:55:55.184Z,94.56
2019-05-29T01:56:55.164Z,94.65
2019-05-29T01:57:55.156Z,94.65
2019-05-29T01:58:55.169Z,94.56
2019-05-29T01:59:55.116Z,94.46
2019-05-29T02:00:55.109Z,94.46
2019-05-29T02:01:55.121Z,94.93
2019-05-29T02:02:55.076Z,95.22
2019-05-29T02:03:55.053Z,95.32
2019-05-29T02:04:55.043Z,95.51
2019-05-29T02:05:55.025Z,95.60
2019-05-29T02:06:55.041Z,95.79
2019-05-29T02:07:54.989Z,95.98
2019-05-29T02:08:54.976Z,96.75
2019-05-29T02:09:54.957Z,97.22
2019-05-29T02:10:54.940Z,97.51
2019-05-29T02:11:54.924Z,97.70
2019-05-29T02:12:54.926Z,97.70
2019-05-29T02:13:54.892Z,97.79
2019-05-29T02:14:54.898Z,97.99
2019-05-29T02:15:54.857Z,98.03
2019-05-29T02:16:54.972Z,97.84
2019-05-29T02:17:54.837Z,97.55
2019-05-29T02:18:54.829Z,97.46
2019-05-29T02:19:54.790Z,97.46
2019-05-29T02:20:54.794Z,97.65
2019-05-29T02:21:54.758Z,97.55
2019-05-29T02:22:54.747Z,97.74
2019-05-29T02:23:54.734Z,98.13
2019-05-29T02:24:54.746Z,98.50
2019-05-29T02:25:54.699Z,98.79
2019-05-29T02:26:54.684Z,99.12
2019-05-29T02:27:54.661Z,99.50
2019-05-29T02:28:54.640Z,99.41
2019-05-29T02:29:54.655Z,99.41
2019-05-29T02:30:54.611Z,99.79
2019-05-29T02:31:54.594Z,99.99
2019-05-29T02:32:54.580Z,99.69
2019-05-29T02:33:54.559Z,99.22
2019-05-29T02:34:54.565Z,99.50
2019-05-29T02:35:54.523Z,99.60
2019-05-29T02:36:54.506Z,99.98
2019-05-29T02:37:54.502Z,99.99
2019-05-29T02:38:54.491Z,99.99
2019-05-29T02:39:54.489Z,99.99
2019-05-29T02:40:54.505Z,99.99
2019-05-29T02:41:54.435Z,99.99
2019-05-29T02:42:54.434Z,99.99
2019-05-29T02:43:54.395Z,99.99
2019-05-29T02:44:54.371Z,99.99
2019-05-29T02:45:55.310Z,99.07
2019-05-29T02:46:54.373Z,98.88
2019-05-29T02:47:54.358Z,98.97
2019-05-29T02:48:54.306Z,99.16
2019-05-29T02:49:54.301Z,99.36
2019-05-29T02:50:54.286Z,99.07
2019-05-29T02:51:54.419Z,99.07
2019-05-29T02:52:54.242Z,99.07
2019-05-29T02:53:54.256Z,99.16
2019-05-29T02:54:54.215Z,99.16
2019-05-29T02:55:54.199Z,99.26
2019-05-29T02:56:54.177Z,99.26
2019-05-29T02:57:54.204Z,98.03
2019-05-29T02:58:54.138Z,97.55
2019-05-29T02:59:54.124Z,97.55
2019-05-29T03:00:54.107Z,97.64
2019-05-29T03:01:54.113Z,97.93
2019-05-29T03:02:54.102Z,97.93
2019-05-29T03:03:54.055Z,98.31
2019-05-29T03:04:54.032Z,98.69
2019-05-29T03:05:54.027Z,98.60
2019-05-29T03:06:54.013Z,98.41
2019-05-29T03:07:54.028Z,98.22
2019-05-29T03:08:53.981Z,98.31
2019-05-29T03:09:53.992Z,98.60
2019-05-29T03:10:53.947Z,99.07
2019-05-29T03:11:53.914Z,99.36
2019-05-29T03:12:53.903Z,99.50
2019-05-29T03:13:54.031Z,99.88
2019-05-29T03:14:53.860Z,99.99
2019-05-29T03:16:09.783Z,99.99
2019-05-29T03:16:53.835Z,99.99
2019-05-29T03:17:53.822Z,99.99
2019-05-29T03:18:53.794Z,99.99
2019-05-29T03:19:53.801Z,99.99
2019-05-29T03:20:53.766Z,99.99
2019-05-29T03:21:53.765Z,99.99
2019-05-29T03:22:53.735Z,99.99
2019-05-29T03:23:53.718Z,99.99
2019-05-29T03:24:53.849Z,99.99
2019-05-29T03:25:53.678Z,99.99
2019-05-29T03:26:53.659Z,99.99
2019-05-29T03:27:53.642Z,99.99
2019-05-29T03:28:53.632Z,99.99
2019-05-29T03:29:53.606Z,99.88
2019-05-29T03:30:53.635Z,99.78
2019-05-29T03:31:53.578Z,99.78
2019-05-29T03:32:53.554Z,99.97
2019-05-29T03:33:53.563Z,99.99
2019-05-29T03:34:53.531Z,99.99
2019-05-29T03:35:53.532Z,99.99
2019-05-29T03:36:53.493Z,99.99
2019-05-29T03:37:53.474Z,99.99
2019-05-29T03:38:53.457Z,99.99
2019-05-29T03:39:53.437Z,99.99
2019-05-29T03:40:53.446Z,99.99
2019-05-29T03:41:53.399Z,99.99
2019-05-29T03:42:53.410Z,99.99
2019-05-29T03:43:53.360Z,99.99
2019-05-29T03:44:53.375Z,99.99
2019-05-29T03:45:53.333Z,99.99
2019-05-29T03:46:53.327Z,99.99
2019-05-29T03:47:53.335Z,99.99
2019-05-29T03:48:53.281Z,99.99
2019-05-29T03:49:53.271Z,99.99
2019-05-29T03:50:53.247Z,99.99
2019-05-29T03:51:53.299Z,99.99
2019-05-29T03:52:53.207Z,99.99
2019-05-29T03:53:53.206Z,99.99
2019-05-29T03:54:53.179Z,99.99
2019-05-29T03:55:53.170Z,99.99
2019-05-29T03:56:53.139Z,99.99
2019-05-29T03:57:53.158Z,99.99
2019-05-29T03:58:53.105Z,99.99
2019-05-29T03:59:53.101Z,99.99
2019-05-29T04:00:53.088Z,99.99
2019-05-29T04:01:53.053Z,99.99
2019-05-29T04:02:53.069Z,99.99
2019-05-29T04:03:53.021Z,99.99
2019-05-29T04:04:53.142Z,99.99
2019-05-29T04:05:52.987Z,99.99
2019-05-29T04:06:52.976Z,99.99
2019-05-29T04:07:52.951Z,99.99
2019-05-29T04:08:52.933Z,99.99
2019-05-29T04:09:52.926Z,99.99
2019-05-29T04:10:52.928Z,99.99
2019-05-29T04:11:52.944Z,99.99
2019-05-29T04:12:52.866Z,99.99
2019-05-29T04:13:52.842Z,99.99
2019-05-29T04:14:52.828Z,99.99
2019-05-29T04:15:52.915Z,99.99
2019-05-29T04:16:59.697Z,99.99
2019-05-29T04:17:52.817Z,99.99
2019-05-29T04:18:52.766Z,99.99
2019-05-29T04:19:52.764Z,99.99
2019-05-29T04:20:52.723Z,99.99
2019-05-29T04:21:52.724Z,99.99
2019-05-29T04:22:52.720Z,99.99
2019-05-29T04:23:52.670Z,99.99
2019-05-29T04:24:52.655Z,99.99
2019-05-29T04:25:52.675Z,99.99
2019-05-29T04:26:52.626Z,99.99
2019-05-29T04:27:52.624Z,99.99
2019-05-29T04:28:52.604Z,99.99
2019-05-29T04:29:52.578Z,99.99
2019-05-29T04:30:52.546Z,99.99
2019-05-29T04:31:52.539Z,99.99
2019-05-29T04:32:52.564Z,99.99
2019-05-29T04:33:52.494Z,99.99
2019-05-29T04:34:52.481Z,99.99
2019-05-29T04:35:52.470Z,99.99
2019-05-29T04:36:52.444Z,99.99
2019-05-29T04:37:52.573Z,99.99
2019-05-29T04:38:52.416Z,99.99
2019-05-29T04:39:52.397Z,99.99
2019-05-29T04:40:52.376Z,99.99
2019-05-29T04:41:52.362Z,99.99
2019-05-29T04:42:52.344Z,99.99
2019-05-29T04:43:56.735Z,99.99
2019-05-29T04:44:52.321Z,99.99
2019-05-29T04:45:52.297Z,99.99
2019-05-29T04:47:09.458Z,99.99
2019-05-29T04:47:52.310Z,99.99
2019-05-29T04:48:52.244Z,99.99
2019-05-29T04:49:52.219Z,99.99
2019-05-29T04:50:52.206Z,99.99
2019-05-29T04:51:52.183Z,99.99
2019-05-29T04:52:52.181Z,99.99
2019-05-29T04:53:52.182Z,99.99
2019-05-29T04:54:52.137Z,99.99
2019-05-29T04:55:52.116Z,99.99
2019-05-29T04:56:52.120Z,99.99
2019-05-29T04:57:52.103Z,99.99
2019-05-29T04:58:52.110Z,99.99
2019-05-29T04:59:52.072Z,99.99
2019-05-29T05:00:59.163Z,99.99
2019-05-29T05:01:52.090Z,99.99
2019-05-29T05:02:52.019Z,99.99
2019-05-29T05:03:52.006Z,99.99
2019-05-29T05:04:51.994Z,99.99
2019-05-29T05:05:51.999Z,99.99
2019-05-29T05:06:51.954Z,99.99
2019-05-29T05:07:51.936Z,99.99
2019-05-29T05:08:51.922Z,99.99
2019-05-29T05:09:51.900Z,99.99
2019-05-29T05:10:51.921Z,99.99
2019-05-29T05:11:51.864Z,99.99
2019-05-29T05:12:51.868Z,99.99
2019-05-29T05:13:51.830Z,99.99
2019-05-29T05:14:51.818Z,99.99
2019-05-29T05:15:51.796Z,99.99
2019-05-29T05:16:51.793Z,99.99
2019-05-29T05:17:51.783Z,99.99
2019-05-29T05:18:51.750Z,99.99
2019-05-29T05:19:51.732Z,99.99
2019-05-29T05:20:51.714Z,99.99
2019-05-29T05:21:51.828Z,99.99
2019-05-29T05:22:51.675Z,99.99
2019-05-29T05:23:51.656Z,99.99
2019-05-29T05:24:51.646Z,99.99
2019-05-29T05:25:51.625Z,99.99
2019-05-29T05:26:51.622Z,99.99
2019-05-29T05:27:51.730Z,99.99
2019-05-29T05:28:51.598Z,99.99
2019-05-29T05:29:51.559Z,99.99
2019-05-29T05:30:51.543Z,99.99
2019-05-29T05:31:51.526Z,99.99
2019-05-29T05:32:51.509Z,99.99
2019-05-29T05:33:51.506Z,99.99
2019-05-29T05:34:51.513Z,99.99
2019-05-29T05:35:51.479Z,99.99
2019-05-29T05:36:51.442Z,99.99
2019-05-29T05:37:51.436Z,99.99
2019-05-29T05:38:51.406Z,99.99
2019-05-29T05:39:51.454Z,99.99
2019-05-29T05:40:51.369Z,99.99
2019-05-29T05:41:51.349Z,99.99
2019-05-29T05:42:51.339Z,99.99
2019-05-29T05:43:51.334Z,99.99
2019-05-29T05:44:51.311Z,99.99
2019-05-29T05:45:51.357Z,99.99
2019-05-29T05:46:51.278Z,99.99
2019-05-29T05:47:57.275Z,99.99
2019-05-29T05:48:51.237Z,99.99
2019-05-29T05:49:51.228Z,99.99
2019-05-29T05:50:51.274Z,99.99
2019-05-29T05:51:51.191Z,99.99
2019-05-29T05:52:51.190Z,99.99
2019-05-29T05:53:51.155Z,99.99
2019-05-29T05:54:51.144Z,99.99
2019-05-29T05:55:51.129Z,99.99
2019-05-29T05:56:53.533Z,99.99
2019-05-29T05:57:51.089Z,99.99
2019-05-29T05:58:51.090Z,99.99
2019-05-29T05:59:51.063Z,99.99
2019-05-29T06:00:51.043Z,99.99
2019-05-29T06:01:51.038Z,99.41
2019-05-29T06:02:52.256Z,99.99
2019-05-29T06:03:50.996Z,99.99
2019-05-29T06:04:50.973Z,99.99
2019-05-29T06:05:50.965Z,99.99
2019-05-29T06:06:50.985Z,99.99
2019-05-29T06:07:50.955Z,99.99
2019-05-29T06:08:50.910Z,99.99
2019-05-29T06:09:50.909Z,99.99
2019-05-29T06:10:51.385Z,99.99
2019-05-29T06:11:50.872Z,99.99
2019-05-29T06:12:50.887Z,99.65
2019-05-29T06:13:50.847Z,98.99
2019-05-29T06:14:50.823Z,98.89
2019-05-29T06:15:50.794Z,98.99
2019-05-29T06:16:50.835Z,99.08
2019-05-29T06:18:05.049Z,97.56
2019-05-29T06:18:50.753Z,95.36
2019-05-29T06:19:50.765Z,93.37
2019-05-29T06:20:50.725Z,92.13
2019-05-29T06:21:50.696Z,90.79
2019-05-29T06:22:50.688Z,89.94
2019-05-29T06:23:50.662Z,90.98
2019-05-29T06:24:50.789Z,92.03
2019-05-29T06:25:50.635Z,91.94
2019-05-29T06:26:50.621Z,91.88
2019-05-29T06:27:50.620Z,91.98
2019-05-29T06:28:50.586Z,92.55
2019-05-29T06:29:50.573Z,92.55
2019-05-29T06:30:50.590Z,92.65
2019-05-29T06:31:50.545Z,93.88
2019-05-29T06:32:50.517Z,94.17
2019-05-29T06:33:50.513Z,94.27
2019-05-29T06:34:50.539Z,93.41
2019-05-29T06:35:50.474Z,92.84
2019-05-29T06:36:50.464Z,93.03
2019-05-29T06:37:50.451Z,92.74
2019-05-29T06:38:50.428Z,92.65
2019-05-29T06:39:50.408Z,92.27
2019-05-29T06:40:50.431Z,91.88
2019-05-29T06:41:50.392Z,91.22
2019-05-29T06:42:50.371Z,91.41
2019-05-29T06:43:50.354Z,90.84
2019-05-29T06:44:50.334Z,92.08
2019-05-29T06:45:50.354Z,94.17
2019-05-29T06:46:50.306Z,94.56
2019-05-29T06:47:50.290Z,93.51
2019-05-29T06:48:59.626Z,92.46
2019-05-29T06:49:50.267Z,93.32
2019-05-29T06:50:50.268Z,93.03
2019-05-29T06:51:50.221Z,92.03
2019-05-29T06:52:50.212Z,91.83
2019-05-29T06:53:50.201Z,91.64
2019-05-29T06:54:50.186Z,93.08
2019-05-29T06:55:53.717Z,93.36
2019-05-29T06:56:50.152Z,93.08
2019-05-29T06:57:50.142Z,93.27
2019-05-29T06:58:50.148Z,93.17
2019-05-29T06:59:50.125Z,89.93
2019-05-29T07:00:50.143Z,86.78
2019-05-29T07:01:50.081Z,85.45
2019-05-29T07:02:50.058Z,84.88
2019-05-29T07:03:50.040Z,84.49
2019-05-29T07:04:50.029Z,84.01
2019-05-29T07:05:52.527Z,84.11
2019-05-29T07:06:50.142Z,84.11
2019-05-29T07:07:49.974Z,85.06
2019-05-29T07:08:50.259Z,85.54
2019-05-29T07:09:49.951Z,86.30
2019-05-29T07:10:49.933Z,86.02
2019-05-29T07:11:49.913Z,85.54
2019-05-29T07:12:49.926Z,86.98
2019-05-29T07:13:50.769Z,87.16
2019-05-29T07:14:49.871Z,86.59
2019-05-29T07:15:49.850Z,86.59
2019-05-29T07:16:56.038Z,86.88
2019-05-29T07:17:49.969Z,89.54
2019-05-29T07:19:23.990Z,90.41
2019-05-29T07:20:02.862Z,89.07
2019-05-29T07:20:49.782Z,88.26
2019-05-29T07:21:49.758Z,88.26
2019-05-29T07:22:49.746Z,88.92
2019-05-29T07:23:49.748Z,87.11
2019-05-29T07:24:49.727Z,83.96
2019-05-29T07:25:49.708Z,79.77
2019-05-29T07:26:49.686Z,81.38
2019-05-29T07:27:49.695Z,83.67
2019-05-29T07:29:07.390Z,82.91
2019-05-29T07:29:49.643Z,82.53
2019-05-29T07:31:00.649Z,81.96
2019-05-29T07:31:49.610Z,82.15
2019-05-29T07:32:56.917Z,82.72
2019-05-29T07:33:49.589Z,83.01
2019-05-29T07:35:02.289Z,83.20
2019-05-29T07:35:49.593Z,80.81
2019-05-29T07:36:49.543Z,79.48
2019-05-29T07:37:49.531Z,79.77
2019-05-29T07:39:01.994Z,80.24
2019-05-29T07:39:49.490Z,80.91
2019-05-29T07:40:50.244Z,82.15
2019-05-29T07:41:49.457Z,81.29
2019-05-29T07:42:55.121Z,79.67
2019-05-29T07:43:49.431Z,78.14
2019-05-29T07:44:49.417Z,77.28
2019-05-29T07:45:49.423Z,77.67
2019-05-29T07:46:49.389Z,78.23
2019-05-29T07:47:49.378Z,78.52
2019-05-29T07:48:50.330Z,80.91
2019-05-29T07:49:50.303Z,82.43
2019-05-29T07:50:49.381Z,81.38
2019-05-29T07:51:49.317Z,80.33
2019-05-29T07:52:49.412Z,79.28
2019-05-29T07:53:49.290Z,78.72
2019-05-29T07:54:50.039Z,79.38
2019-05-29T07:55:49.296Z,78.62
2019-05-29T07:56:49.251Z,77.95
2019-05-29T07:57:49.224Z,76.56
2019-05-29T07:59:01.796Z,76.46
2019-05-29T07:59:49.203Z,75.47
2019-05-29T08:01:09.317Z,75.57
2019-05-29T08:01:49.322Z,77.76
2019-05-29T08:02:49.526Z,78.05
2019-05-29T08:03:49.686Z,78.05
2019-05-29T08:04:49.812Z,78.37
2019-05-29T08:05:51.505Z,79.14
2019-05-29T08:06:54.206Z,78.75
2019-05-29T08:07:49.661Z,77.23
2019-05-29T08:08:49.525Z,76.84
2019-05-29T08:09:49.837Z,75.32
2019-05-29T08:10:49.754Z,75.03
2019-05-29T08:11:50.137Z,75.51
2019-05-29T08:12:54.891Z,75.51
2019-05-29T08:13:50.020Z,75.79
2019-05-29T08:14:50.170Z,76.08
2019-05-29T08:15:57.484Z,76.75
2019-05-29T08:16:50.034Z,75.89
2019-05-29T08:17:50.134Z,75.51
2019-05-29T08:18:52.483Z,73.69
2019-05-29T08:20:02.964Z,73.37
2019-05-29T08:20:48.886Z,73.75
2019-05-29T08:21:48.869Z,74.99
2019-05-29T08:22:48.885Z,77.47
2019-05-29T08:23:48.876Z,77.86
2019-05-29T08:24:49.449Z,77.86
2019-05-29T08:25:49.632Z,78.09
2019-05-29T08:26:48.988Z,78.85
2019-05-29T08:27:49.036Z,78.47
2019-05-29T08:28:48.921Z,77.32
2019-05-29T08:29:48.887Z,77.03
2019-05-29T08:30:54.106Z,78.18
2019-05-29T08:31:48.996Z,79.71
2019-05-29T08:32:49.229Z,78.75
2019-05-29T08:33:48.985Z,75.42
2019-05-29T08:34:49.067Z,77.03
2019-05-29T08:35:57.712Z,77.89
2019-05-29T08:37:04.787Z,77.94
2019-05-29T08:37:49.121Z,78.51
2019-05-29T08:38:49.302Z,76.31
2019-05-29T08:39:49.561Z,76.21
2019-05-29T08:40:49.550Z,76.60
2019-05-29T08:42:19.330Z,78.99
2019-05-29T08:42:49.443Z,79.36
2019-05-29T08:43:48.564Z,77.87
2019-05-29T08:44:50.072Z,73.96
2019-05-29T08:45:49.685Z,71.57
2019-05-29T08:47:08.214Z,72.33
2019-05-29T08:47:49.675Z,73.48
2019-05-29T08:48:48.495Z,73.00
2019-05-29T08:49:52.475Z,71.57
2019-05-29T08:50:48.463Z,68.84
2019-05-29T08:51:48.459Z,69.70
2019-05-29T08:52:48.454Z,70.40
2019-05-29T08:53:48.794Z,69.95
2019-05-29T08:54:48.422Z,68.55
2019-05-29T08:55:48.991Z,63.89
2019-05-29T08:56:48.458Z,59.42
2019-05-29T08:57:48.524Z,59.74
2019-05-29T08:58:48.458Z,57.43
2019-05-29T08:59:48.501Z,55.90
2019-05-29T09:00:51.866Z,55.62
2019-05-29T09:01:50.419Z,55.11
2019-05-29T09:02:49.200Z,55.40
2019-05-29T09:03:48.907Z,56.54
2019-05-29T09:04:49.859Z,56.74
2019-05-29T09:06:05.157Z,55.42
2019-05-29T09:06:49.215Z,54.75
2019-05-29T09:07:49.807Z,54.39
2019-05-29T09:08:49.920Z,52.86
2019-05-29T09:09:49.104Z,52.86
2019-05-29T09:10:49.427Z,51.42
2019-05-29T09:11:49.926Z,51.23
2019-05-29T09:12:56.867Z,51.71
2019-05-29T09:13:48.191Z,51.23
2019-05-29T09:14:48.318Z,50.13
2019-05-29T09:15:48.167Z,49.72
2019-05-29T09:16:48.232Z,49.12
2019-05-29T09:17:48.158Z,49.05
2019-05-29T09:18:48.152Z,49.67
2019-05-29T09:19:48.154Z,47.30
2019-05-29T09:21:02.037Z,45.87
2019-05-29T09:21:48.114Z,46.21
2019-05-29T09:22:48.121Z,45.94
2019-05-29T09:23:48.124Z,45.36
2019-05-29T09:24:48.080Z,44.76
2019-05-29T09:25:48.076Z,46.28
2019-05-29T09:26:48.058Z,45.87
2019-05-29T09:27:48.073Z,46.74
2019-05-29T09:28:48.078Z,47.31
2019-05-29T09:29:48.043Z,47.97
2019-05-29T09:30:48.163Z,45.56
2019-05-29T09:31:48.027Z,46.62
2019-05-29T09:32:50.966Z,47.31
2019-05-29T09:33:47.997Z,47.13
2019-05-29T09:34:47.994Z,46.84
2019-05-29T09:35:48.125Z,47.68
2019-05-29T09:36:48.082Z,49.07
2019-05-29T09:37:47.956Z,47.99
2019-05-29T09:38:48.179Z,47.77
2019-05-29T09:39:47.945Z,49.79
2019-05-29T09:40:47.932Z,51.57
2019-05-29T09:41:47.924Z,51.50
2019-05-29T09:42:47.911Z,50.30
2019-05-29T09:43:58.317Z,44.65
2019-05-29T09:44:47.898Z,43.95
2019-05-29T09:45:47.881Z,44.14
2019-05-29T09:46:47.901Z,45.01
2019-05-29T09:47:47.866Z,44.34
2019-05-29T09:48:50.146Z,43.49
2019-05-29T09:49:47.855Z,43.11
2019-05-29T09:50:50.599Z,42.74
2019-05-29T09:51:47.838Z,41.32
2019-05-29T09:52:47.826Z,40.95
2019-05-29T09:53:47.916Z,40.37
2019-05-29T09:54:47.830Z,40.20
2019-05-29T09:55:47.817Z,39.89
2019-05-29T09:56:47.950Z,39.47
2019-05-29T09:57:47.811Z,40.41
2019-05-29T09:58:47.801Z,41.55
2019-05-29T09:59:47.798Z,43.47
2019-05-29T10:00:47.812Z,43.71
2019-05-29T10:01:47.794Z,43.34
2019-05-29T10:02:47.909Z,43.07
2019-05-29T10:03:47.771Z,41.67
2019-05-29T10:04:47.765Z,39.57
2019-05-29T10:05:47.764Z,38.62
2019-05-29T10:06:47.769Z,35.36
2019-05-29T10:07:47.765Z,34.12
2019-05-29T10:08:47.788Z,34.62
2019-05-29T10:09:47.754Z,34.83
2019-05-29T10:10:47.775Z,33.09
2019-05-29T10:11:47.750Z,33.07
2019-05-29T10:12:47.739Z,33.15
2019-05-29T10:13:47.885Z,35.82
2019-05-29T10:14:51.217Z,38.89
2019-05-29T10:15:47.744Z,39.06
2019-05-29T10:16:47.738Z,38.10
2019-05-29T10:17:47.744Z,37.33
2019-05-29T10:18:47.731Z,37.73
2019-05-29T10:19:47.738Z,37.23
2019-05-29T10:20:47.732Z,37.04
2019-05-29T10:21:47.738Z,37.62
2019-05-29T10:22:47.717Z,36.57
2019-05-29T10:23:47.757Z,37.71
2019-05-29T10:24:47.714Z,37.91
2019-05-29T10:25:47.717Z,38.68
2019-05-29T10:26:47.725Z,38.51
2019-05-29T10:27:47.766Z,36.77
2019-05-29T10:29:02.564Z,35.71
2019-05-29T10:29:50.266Z,36.17
2019-05-29T10:30:48.306Z,39.34
2019-05-29T10:31:49.200Z,40.01
2019-05-29T10:32:48.188Z,39.74
2019-05-29T10:33:48.235Z,38.89
2019-05-29T10:34:48.468Z,36.71
2019-05-29T10:35:49.691Z,36.08
2019-05-29T10:36:50.381Z,35.04
2019-05-29T10:37:48.657Z,32.62
2019-05-29T10:38:48.658Z,32.51
2019-05-29T10:39:48.894Z,34.00
2019-05-29T10:41:00.359Z,32.92
2019-05-29T10:41:48.545Z,33.87
2019-05-29T10:42:49.011Z,34.52
2019-05-29T10:43:49.069Z,36.49
2019-05-29T10:44:47.656Z,37.22
2019-05-29T10:45:48.088Z,40.05
2019-05-29T10:46:48.370Z,42.79
2019-05-29T10:47:47.630Z,44.70
2019-05-29T10:48:49.295Z,45.16
2019-05-29T10:49:47.711Z,47.08
2019-05-29T10:50:50.446Z,46.79
2019-05-29T10:52:00.445Z,47.08
2019-05-29T10:52:47.916Z,48.16
2019-05-29T10:53:49.629Z,47.27
2019-05-29T10:54:48.130Z,45.70
2019-05-29T10:55:48.588Z,42.40
2019-05-29T10:56:48.787Z,41.30
2019-05-29T10:57:48.984Z,37.96
2019-05-29T10:58:52.388Z,33.50
2019-05-29T10:59:48.514Z,33.39
2019-05-29T11:00:49.033Z,36.21
2019-05-29T11:01:47.552Z,35.82
2019-05-29T11:02:48.124Z,34.76
2019-05-29T11:03:47.535Z,34.94
2019-05-29T11:04:51.575Z,36.36
2019-05-29T11:05:47.565Z,37.71
2019-05-29T11:06:48.041Z,39.43
2019-05-29T11:07:47.684Z,37.77
2019-05-29T11:08:48.019Z,36.63
2019-05-29T11:09:48.570Z,37.89
2019-05-29T11:10:47.943Z,39.91
2019-05-29T11:11:48.453Z,39.53
2019-05-29T11:12:48.402Z,38.46
2019-05-29T11:13:48.641Z,38.16
2019-05-29T11:14:48.509Z,38.53
2019-05-29T11:15:48.518Z,39.76
2019-05-29T11:16:48.908Z,40.53
2019-05-29T11:17:47.474Z,41.66
2019-05-29T11:18:47.583Z,41.86
2019-05-29T11:19:47.459Z,41.47
2019-05-29T11:20:47.576Z,43.35
2019-05-29T11:21:48.130Z,42.93
2019-05-29T11:22:47.569Z,43.70
2019-05-29T11:23:47.712Z,45.50
2019-05-29T11:24:47.949Z,46.07
2019-05-29T11:25:47.879Z,46.34
2019-05-29T11:26:48.383Z,46.81
2019-05-29T11:27:48.487Z,47.49
2019-05-29T11:28:48.356Z,47.68
2019-05-29T11:29:48.734Z,48.16
2019-05-29T11:30:48.643Z,48.71
2019-05-29T11:31:48.528Z,47.53
2019-05-29T11:32:49.906Z,44.71
2019-05-29T11:33:48.704Z,41.71
2019-05-29T11:34:47.343Z,38.56
2019-05-29T11:35:58.290Z,36.30
2019-05-29T11:36:47.318Z,35.72
2019-05-29T11:37:47.351Z,33.18
2019-05-29T11:38:47.307Z,34.02
2019-05-29T11:39:47.311Z,35.44
2019-05-29T11:40:47.459Z,35.69
2019-05-29T11:41:47.290Z,37.12
2019-05-29T11:42:47.354Z,38.54
2019-05-29T11:43:47.311Z,39.79
2019-05-29T11:44:47.271Z,39.79
2019-05-29T11:45:47.273Z,39.61
2019-05-29T11:46:47.272Z,38.72
2019-05-29T11:47:47.261Z,38.72
2019-05-29T11:48:47.277Z,39.59
2019-05-29T11:49:47.244Z,39.11
2019-05-29T11:50:47.266Z,39.09
2019-05-29T11:51:47.226Z,38.87
2019-05-29T11:52:47.250Z,39.64
2019-05-29T11:53:47.214Z,40.49
2019-05-29T11:54:47.275Z,41.05
2019-05-29T11:55:47.196Z,43.14
2019-05-29T11:56:47.195Z,43.33
2019-05-29T11:57:47.229Z,42.25
2019-05-29T11:58:47.184Z,41.94
2019-05-29T11:59:47.214Z,42.02
2019-05-29T12:00:47.162Z,43.55
2019-05-29T12:01:50.738Z,44.80
2019-05-29T12:02:47.150Z,44.51
2019-05-29T12:04:09.483Z,45.00
2019-05-29T12:04:47.145Z,45.88
2019-05-29T12:05:47.269Z,47.61
2019-05-29T12:06:47.112Z,49.15
2019-05-29T12:07:47.093Z,48.69
2019-05-29T12:08:47.103Z,49.93
2019-05-29T12:09:47.224Z,48.79
2019-05-29T12:10:47.068Z,45.52
2019-05-29T12:11:47.054Z,44.27
2019-05-29T12:12:47.064Z,45.61
2019-05-29T12:13:47.059Z,46.45
2019-05-29T12:15:00.277Z,48.79
2019-05-29T12:15:47.063Z,47.92
2019-05-29T12:16:47.012Z,47.15
2019-05-29T12:17:47.019Z,43.67
2019-05-29T12:18:47.002Z,43.38
2019-05-29T12:19:46.985Z,45.11
2019-05-29T12:20:47.009Z,44.54
2019-05-29T12:21:46.973Z,45.68
2019-05-29T12:23:10.924Z,47.22
2019-05-29T12:23:46.946Z,46.14
2019-05-29T12:24:46.946Z,44.90
2019-05-29T12:25:46.940Z,46.72
2019-05-29T12:26:46.922Z,46.94
2019-05-29T12:27:46.919Z,46.55
2019-05-29T12:28:46.913Z,46.36
2019-05-29T12:29:47.044Z,45.98
2019-05-29T12:30:46.879Z,43.67
2019-05-29T12:31:46.873Z,43.27
2019-05-29T12:32:46.871Z,43.36
2019-05-29T12:33:46.867Z,42.88
2019-05-29T12:34:53.606Z,43.07
2019-05-29T12:35:50.055Z,44.61
2019-05-29T12:36:46.862Z,45.28
2019-05-29T12:37:46.828Z,46.14
2019-05-29T12:38:46.813Z,51.35
2019-05-29T12:39:46.810Z,51.06
2019-05-29T12:40:46.788Z,47.51
2019-05-29T12:41:46.799Z,47.80
2019-05-29T12:42:46.806Z,44.82
2019-05-29T12:43:46.774Z,46.36
2019-05-29T12:44:46.766Z,45.68
2019-05-29T12:45:46.751Z,45.59
2019-05-29T12:46:46.873Z,45.71
2019-05-29T12:47:46.732Z,45.42
2019-05-29T12:48:46.719Z,43.29
2019-05-29T12:49:46.720Z,41.56
2019-05-29T12:50:46.701Z,43.10
2019-05-29T12:51:46.687Z,42.79
2019-05-29T12:52:46.704Z,43.17